Kensington, California
Current Conditions -  °F | °C
As of 5:53 AM on Wednesday 26 Nov 2014 (Local Time) from KOAK Reporting Station
Clear Clear  
Wind Chill: 46°   Ceiling: Unl
Heat Index: 48°   Visibility: 10mi
Dew Point: 42°   Wind: 5mph
Humidity: 80%   Direction: 90°E
Pressure: 30.3"   Gusts: NA
Location:  37.8981°N, 122.279°W
Report Text: KOAK 261353Z 09004KT 10SM CLR 09/06 A3030 RMK AO2 SLP260 T00890056
Loading
Personal Weather Stations






























Interactive Weather Map New forecast layout! Learn more

10-Day Weather Forecast

Advertisements
Track Severe Weather on mobile